Terminal Aerodrome Forecast
Issued by NWS

Home | Current Version | Previous Version | Text Only | Print | Product List | Glossary On
Versions: 1 2 3 4 5 6 7 8 9 10 11 12 13 14 15 16 17 18
000
FTUS42 KJAX 041120
TAFVQQ
TAF
KVQQ 041120Z 0412/0512 VRB02KT P6SM FEW150 SCT250
     FM041400 24007KT P6SM SCT035 SCT250
     FM041800 21007KT P6SM VCTS SCT050CB BKN150
      TEMPO 0419/0421 VRB15G25KT 4SM TSRA BKN035CB
     FM050000 19004KT P6SM VCSH SCT050 BKN120
     FM050200 20003KT P6SM FEW050 SCT120 BKN200=

USA.gov is the U.S. government's official web portal to all federal, state and local government web resources and services.